HYC weather

Corpo Santa Fe 505 Heliport
Cuajimalpa, Distrito Federal, Mexico

Public forecast

Using degrees Celsius for public forecast. Weather courtesy of forecast.io.

METAR (pilot weather report)

Closest report is Licenciado Benito Juarez International Airport, 12.4 nm (22.9 km) ENE. Retrieved 2019/08/25 03:45 UTC (52 minutes ago):

MMMX 250345Z 06007KT 7SM SCT020 SCT080 BKN200 19/12 A3037 NOSIG RMK 8/463 HZY

TAF (pilot weather forecast)

Forecast is more than 12 hours old.

Closest forecast is Licenciado Benito Juarez International Airport, 12.4 nm (22.9 km) ENE. Retrieved 2019/08/24 00:12 UTC (1 day ago):

TAF COR MMMX 242306Z 2500/2606 12010KT 5SM TS BKN020CB BKN080 OVC200 TX26/2521Z TN15/2512Z TEMPO 2500/2504 5SM TSRA FM250400 05005KT 5SM -TSRA SCT020CB BKN090 OVC200 BECMG 2507/2508 5SM HZ FM251700 05010KT P6SM SCT020 BKN250 FM252200 05010KT 6SM HZ BKN020CB BKN080 BKN250 TEMPO 2523/2603 4SM TSRA FM260300 05005KT 6SM TSRA BKN020CB OVC090